sensor_id;sensor_type;location;lat;lon;timestamp;pressure;altitude;pressure_sealevel;temperature;humidity
30339;BME280;795;49.296;11.348;2023-04-01T00:00:59;94983.31;;;7.09;100.00
30339;BME280;795;49.296;11.348;2023-04-01T00:03:28;94849.94;;;6.28;100.00
30339;BME280;795;49.296;11.348;2023-04-01T00:05:58;94879.19;;;6.51;100.00
30339;BME280;795;49.296;11.348;2023-04-01T00:08:27;94930.56;;;6.82;100.00
30339;BME280;795;49.296;11.348;2023-04-01T00:10:55;94928.81;;;6.89;100.00
30339;BME280;795;49.296;11.348;2023-04-01T00:13:25;94980.34;;;7.19;100.00
30339;BME280;795;49.296;11.348;2023-04-01T00:15:55;94951.00;;;7.04;100.00
30339;BME280;795;49.296;11.348;2023-04-01T00:18:24;94967.94;;;7.26;100.00
30339;BME280;795;49.296;11.348;2023-04-01T00:20:52;94913.81;;;7.03;100.00
30339;BME280;795;49.296;11.348;2023-04-01T00:23:20;94958.53;;;7.30;100.00
30339;BME280;795;49.296;11.348;2023-04-01T00:25:48;94902.06;;;6.97;100.00
30339;BME280;795;49.296;11.348;2023-04-01T00:28:19;94945.94;;;7.24;100.00
30339;BME280;795;49.296;11.348;2023-04-01T00:30:47;94963.78;;;7.23;100.00
30339;BME280;795;49.296;11.348;2023-04-01T00:33:15;94959.81;;;7.34;100.00
30339;BME280;795;49.296;11.348;2023-04-01T00:35:44;94903.97;;;7.03;100.00
30339;BME280;795;49.296;11.348;2023-04-01T00:38:12;94899.38;;;6.97;100.00
30339;BME280;795;49.296;11.348;2023-04-01T00:40:45;94955.03;;;7.44;100.00
30339;BME280;795;49.296;11.348;2023-04-01T00:43:21;94956.88;;;7.44;100.00
30339;BME280;795;49.296;11.348;2023-04-01T00:45:49;94898.00;;;7.01;100.00
30339;BME280;795;49.296;11.348;2023-04-01T00:48:23;94954.69;;;7.32;100.00
30339;BME280;795;49.296;11.348;2023-04-01T00:51:06;94936.91;;;7.25;100.00
30339;BME280;795;49.296;11.348;2023-04-01T00:53:43;94956.63;;;7.39;100.00
30339;BME280;795;49.296;11.348;2023-04-01T00:56:23;94956.44;;;7.40;100.00
30339;BME280;795;49.296;11.348;2023-04-01T00:59:11;94908.19;;;7.12;100.00
30339;BME280;795;49.296;11.348;2023-04-01T01:01:40;94842.81;;;6.73;100.00
30339;BME280;795;49.296;11.348;2023-04-01T01:04:18;94806.97;;;6.60;100.00
30339;BME280;795;49.296;11.348;2023-04-01T01:10:29;94918.69;;;7.28;100.00
30339;BME280;795;49.296;11.348;2023-04-01T01:13:31;94909.78;;;7.21;100.00
30339;BME280;795;49.296;11.348;2023-04-01T01:16:22;94941.81;;;7.36;100.00
30339;BME280;795;49.296;11.348;2023-04-01T01:22:43;94951.00;;;7.48;100.00
30339;BME280;795;49.296;11.348;2023-04-01T01:25:42;94887.97;;;7.03;100.00
30339;BME280;795;49.296;11.348;2023-04-01T01:34:50;94933.69;;;7.44;100.00
30339;BME280;795;49.296;11.348;2023-04-01T01:37:27;94936.53;;;7.43;100.00
30339;BME280;795;49.296;11.348;2023-04-01T01:40:06;94828.44;;;6.88;100.00
30339;BME280;795;49.296;11.348;2023-04-01T01:42:39;94834.44;;;6.90;100.00
30339;BME280;795;49.296;11.348;2023-04-01T01:45:12;94885.56;;;7.23;100.00
30339;BME280;795;49.296;11.348;2023-04-01T01:47:42;94925.38;;;7.54;100.00
30339;BME280;795;49.296;11.348;2023-04-01T01:50:11;94912.25;;;7.38;100.00
30339;BME280;795;49.296;11.348;2023-04-01T01:52:38;94890.06;;;7.22;100.00
30339;BME280;795;49.296;11.348;2023-04-01T01:55:42;94933.13;;;7.49;100.00
30339;BME280;795;49.296;11.348;2023-04-01T01:58:25;94922.28;;;7.50;100.00
30339;BME280;795;49.296;11.348;2023-04-01T02:01:09;94866.69;;;7.10;100.00
30339;BME280;795;49.296;11.348;2023-04-01T02:03:40;94892.09;;;7.35;100.00
30339;BME280;795;49.296;11.348;2023-04-01T02:06:14;94927.88;;;7.55;100.00
30339;BME280;795;49.296;11.348;2023-04-01T02:08:54;94889.34;;;7.28;100.00
30339;BME280;795;49.296;11.348;2023-04-01T02:11:34;94838.75;;;7.06;100.00
30339;BME280;795;49.296;11.348;2023-04-01T02:14:28;94922.13;;;7.58;100.00
30339;BME280;795;49.296;11.348;2023-04-01T02:17:13;94928.69;;;7.56;100.00
30339;BME280;795;49.296;11.348;2023-04-01T02:19:59;94925.38;;;7.54;100.00
30339;BME280;795;49.296;11.348;2023-04-01T02:22:35;94892.84;;;7.29;100.00
30339;BME280;795;49.296;11.348;2023-04-01T02:25:14;94922.13;;;7.58;100.00
30339;BME280;795;49.296;11.348;2023-04-01T02:27:45;94931.63;;;7.61;100.00
30339;BME280;795;49.296;11.348;2023-04-01T02:30:16;94884.00;;;7.28;100.00
30339;BME280;795;49.296;11.348;2023-04-01T02:32:46;94915.47;;;7.48;100.00
30339;BME280;795;49.296;11.348;2023-04-01T02:35:17;94812.72;;;6.93;100.00
30339;BME280;795;49.296;11.348;2023-04-01T02:37:46;94857.69;;;7.11;100.00
30339;BME280;795;49.296;11.348;2023-04-01T02:40:17;94911.13;;;7.47;100.00
30339;BME280;795;49.296;11.348;2023-04-01T02:42:44;94909.38;;;7.39;100.00
30339;BME280;795;49.296;11.348;2023-04-01T02:45:13;94947.66;;;7.61;100.00
30339;BME280;795;49.296;11.348;2023-04-01T02:47:40;94923.81;;;7.45;100.00
30339;BME280;795;49.296;11.348;2023-04-01T02:50:09;94901.84;;;7.28;100.00
30339;BME280;795;49.296;11.348;2023-04-01T02:52:36;94943.50;;;7.58;100.00
30339;BME280;795;49.296;11.348;2023-04-01T02:55:04;94821.56;;;6.79;100.00
30339;BME280;795;49.296;11.348;2023-04-01T02:57:31;94807.31;;;6.57;100.00
30339;BME280;795;49.296;11.348;2023-04-01T02:59:58;94874.19;;;7.14;100.00
30339;BME280;795;49.296;11.348;2023-04-01T03:02:25;94925.03;;;7.42;100.00
30339;BME280;795;49.296;11.348;2023-04-01T03:04:53;94925.50;;;7.46;100.00
30339;BME280;795;49.296;11.348;2023-04-01T03:07:20;94953.09;;;7.53;100.00
30339;BME280;795;49.296;11.348;2023-04-01T03:09:47;94942.31;;;7.61;100.00
30339;BME280;795;49.296;11.348;2023-04-01T03:12:14;94948.03;;;7.58;100.00
30339;BME280;795;49.296;11.348;2023-04-01T03:14:41;94847.50;;;7.00;100.00
30339;BME280;795;49.296;11.348;2023-04-01T03:17:07;94923.81;;;7.45;100.00
30339;BME280;795;49.296;11.348;2023-04-01T03:19:34;94942.56;;;7.66;100.00
30339;BME280;795;49.296;11.348;2023-04-01T03:22:01;94899.16;;;7.43;100.00
30339;BME280;795;49.296;11.348;2023-04-01T03:24:28;94915.00;;;7.44;100.00
30339;BME280;795;49.296;11.348;2023-04-01T03:26:55;94958.88;;;7.71;100.00
30339;BME280;795;49.296;11.348;2023-04-01T03:29:22;94929.50;;;7.56;100.00
30339;BME280;795;49.296;11.348;2023-04-01T03:31:49;94941.31;;;7.62;100.00
30339;BME280;795;49.296;11.348;2023-04-01T03:34:16;94933.84;;;7.57;100.00
30339;BME280;795;49.296;11.348;2023-04-01T03:36:43;94960.06;;;7.68;100.00
30339;BME280;795;49.296;11.348;2023-04-01T03:39:10;94964.34;;;7.63;100.00
30339;BME280;795;49.296;11.348;2023-04-01T03:41:38;94917.22;;;7.41;100.00
30339;BME280;795;49.296;11.348;2023-04-01T03:44:05;94906.00;;;7.30;100.00
30339;BME280;795;49.296;11.348;2023-04-01T03:46:32;94967.38;;;7.60;100.00
30339;BME280;795;49.296;11.348;2023-04-01T03:48:59;94964.13;;;7.64;100.00
30339;BME280;795;49.296;11.348;2023-04-01T03:51:25;94970.88;;;7.60;100.00
30339;BME280;795;49.296;11.348;2023-04-01T03:53:52;94906.09;;;7.22;100.00
30339;BME280;795;49.296;11.348;2023-04-01T03:56:19;94894.41;;;7.09;100.00
30339;BME280;795;49.296;11.348;2023-04-01T03:58:46;94951.06;;;7.55;100.00
30339;BME280;795;49.296;11.348;2023-04-01T04:01:22;94936.25;;;7.38;100.00
30339;BME280;795;49.296;11.348;2023-04-01T04:03:50;94971.31;;;7.64;100.00
30339;BME280;795;49.296;11.348;2023-04-01T04:06:19;94968.91;;;7.69;100.00
30339;BME280;795;49.296;11.348;2023-04-01T04:08:46;94940.84;;;7.44;100.00
30339;BME280;795;49.296;11.348;2023-04-01T04:11:13;94945.66;;;7.48;100.00
30339;BME280;795;49.296;11.348;2023-04-01T04:13:41;94956.31;;;7.63;100.00
30339;BME280;795;49.296;11.348;2023-04-01T04:16:09;94965.97;;;7.64;100.00
30339;BME280;795;49.296;11.348;2023-04-01T04:18:37;94965.97;;;7.64;100.00
30339;BME280;795;49.296;11.348;2023-04-01T04:21:05;94929.66;;;7.19;100.00
30339;BME280;795;49.296;11.348;2023-04-01T04:23:33;94978.78;;;7.39;100.00
30339;BME280;795;49.296;11.348;2023-04-01T04:26:09;94976.38;;;7.29;100.00
30339;BME280;795;49.296;11.348;2023-04-01T04:28:37;94958.25;;;7.10;100.00
30339;BME280;795;49.296;11.348;2023-04-01T04:31:05;94945.75;;;6.96;100.00
30339;BME280;795;49.296;11.348;2023-04-01T04:33:34;94976.56;;;7.13;100.00
30339;BME280;795;49.296;11.348;2023-04-01T04:36:03;94944.69;;;6.68;100.00
30339;BME280;795;49.296;11.348;2023-04-01T04:38:31;94906.03;;;6.49;100.00
30339;BME280;795;49.296;11.348;2023-04-01T04:40:58;94991.72;;;6.98;100.00
30339;BME280;795;49.296;11.348;2023-04-01T04:43:25;94864.50;;;6.18;100.00
30339;BME280;795;49.296;11.348;2023-04-01T04:45:52;94969.47;;;6.91;100.00
30339;BME280;795;49.296;11.348;2023-04-01T04:48:19;94906.66;;;6.37;100.00
30339;BME280;795;49.296;11.348;2023-04-01T04:50:50;94987.00;;;6.86;100.00
30339;BME280;795;49.296;11.348;2023-04-01T04:53:19;94939.72;;;6.65;100.00
30339;BME280;795;49.296;11.348;2023-04-01T04:55:50;94925.63;;;6.56;100.00
30339;BME280;795;49.296;11.348;2023-04-01T04:58:18;94989.59;;;6.94;100.00
30339;BME280;795;49.296;11.348;2023-04-01T05:00:46;94926.94;;;6.60;100.00
30339;BME280;795;49.296;11.348;2023-04-01T05:03:14;94962.38;;;6.84;100.00
30339;BME280;795;49.296;11.348;2023-04-01T05:05:52;94907.88;;;6.49;100.00
30339;BME280;795;49.296;11.348;2023-04-01T05:08:20;94841.44;;;6.10;100.00
30339;BME280;795;49.296;11.348;2023-04-01T05:10:47;94912.28;;;6.56;100.00
30339;BME280;795;49.296;11.348;2023-04-01T05:13:14;94992.00;;;7.03;100.00
30339;BME280;795;49.296;11.348;2023-04-01T05:15:41;94962.00;;;6.87;100.00
30339;BME280;795;49.296;11.348;2023-04-01T05:18:08;94880.81;;;6.37;100.00
30339;BME280;795;49.296;11.348;2023-04-01T05:20:35;94990.38;;;7.02;100.00
30339;BME280;795;49.296;11.348;2023-04-01T05:23:02;94967.09;;;6.96;100.00
30339;BME280;795;49.296;11.348;2023-04-01T05:25:29;95009.59;;;7.12;100.00
30339;BME280;795;49.296;11.348;2023-04-01T05:27:57;94934.06;;;6.83;100.00
30339;BME280;795;49.296;11.348;2023-04-01T05:30:24;94942.88;;;6.98;100.00
30339;BME280;795;49.296;11.348;2023-04-01T05:32:50;94988.81;;;7.22;100.00
30339;BME280;795;49.296;11.348;2023-04-01T05:35:17;94939.13;;;7.07;100.00
30339;BME280;795;49.296;11.348;2023-04-01T05:37:44;94967.09;;;7.25;100.00
30339;BME280;795;49.296;11.348;2023-04-01T05:40:11;94921.38;;;7.14;100.00
30339;BME280;795;49.296;11.348;2023-04-01T05:42:38;94833.34;;;6.70;100.00
30339;BME280;795;49.296;11.348;2023-04-01T05:45:06;94960.66;;;7.49;100.00
30339;BME280;795;49.296;11.348;2023-04-01T05:47:33;94939.94;;;7.36;100.00
30339;BME280;795;49.296;11.348;2023-04-01T05:50:00;94976.09;;;7.68;100.00
30339;BME280;795;49.296;11.348;2023-04-01T05:52:27;94906.34;;;7.27;100.00
30339;BME280;795;49.296;11.348;2023-04-01T05:54:54;94983.09;;;7.84;100.00
30339;BME280;795;49.296;11.348;2023-04-01T05:57:21;94982.16;;;7.91;100.00
30339;BME280;795;49.296;11.348;2023-04-01T05:59:48;94963.34;;;7.85;100.00
30339;BME280;795;49.296;11.348;2023-04-01T06:02:17;94980.66;;;8.03;100.00
30339;BME280;795;49.296;11.348;2023-04-01T06:04:45;94959.19;;;7.97;100.00
30339;BME280;795;49.296;11.348;2023-04-01T06:07:17;94883.28;;;7.56;100.00
30339;BME280;795;49.296;11.348;2023-04-01T06:09:45;94969.72;;;8.20;100.00
30339;BME280;795;49.296;11.348;2023-04-01T06:12:45;94977.72;;;8.34;100.00
30339;BME280;795;49.296;11.348;2023-04-01T06:15:32;94993.25;;;8.45;100.00
30339;BME280;795;49.296;11.348;2023-04-01T06:18:25;94989.03;;;8.36;100.00
30339;BME280;795;49.296;11.348;2023-04-01T06:21:56;94978.19;;;8.38;100.00
30339;BME280;795;49.296;11.348;2023-04-01T06:31:58;94987.09;;;8.66;100.00
30339;BME280;795;49.296;11.348;2023-04-01T06:34:56;94929.06;;;8.45;100.00
30339;BME280;795;49.296;11.348;2023-04-01T06:41:17;94990.31;;;8.83;100.00
30339;BME280;795;49.296;11.348;2023-04-01T06:44:23;94982.03;;;8.78;100.00
30339;BME280;795;49.296;11.348;2023-04-01T06:47:28;94983.56;;;8.87;100.00
30339;BME280;795;49.296;11.348;2023-04-01T06:50:34;94989.09;;;8.85;100.00
30339;BME280;795;49.296;11.348;2023-04-01T06:55:59;94956.44;;;8.68;100.00
30339;BME280;795;49.296;11.348;2023-04-01T06:59:10;94984.97;;;8.83;100.00
30339;BME280;795;49.296;11.348;2023-04-01T07:01:41;94987.00;;;8.81;100.00
30339;BME280;795;49.296;11.348;2023-04-01T07:04:23;94991.53;;;8.80;100.00
30339;BME280;795;49.296;11.348;2023-04-01T07:07:05;94989.56;;;8.89;100.00
30339;BME280;795;49.296;11.348;2023-04-01T07:09:53;94910.06;;;8.55;100.00
30339;BME280;795;49.296;11.348;2023-04-01T07:12:44;94986.25;;;9.14;100.00
30339;BME280;795;49.296;11.348;2023-04-01T07:15:30;94946.34;;;8.92;100.00
30339;BME280;795;49.296;11.348;2023-04-01T07:18:14;94953.72;;;8.90;100.00
30339;BME280;795;49.296;11.348;2023-04-01T07:20:44;94905.50;;;8.55;100.00
30339;BME280;795;49.296;11.348;2023-04-01T07:23:38;94987.47;;;9.12;100.00
30339;BME280;795;49.296;11.348;2023-04-01T07:26:24;94952.81;;;8.76;100.00
30339;BME280;795;49.296;11.348;2023-04-01T07:28:54;94988.47;;;9.11;100.00
30339;BME280;795;49.296;11.348;2023-04-01T07:32:04;94995.16;;;9.21;100.00
30339;BME280;795;49.296;11.348;2023-04-01T07:41:07;94925.94;;;9.18;100.00
30339;BME280;795;49.296;11.348;2023-04-01T07:47:25;95004.03;;;9.22;100.00
30339;BME280;795;49.296;11.348;2023-04-01T07:50:22;94955.47;;;9.04;100.00
30339;BME280;795;49.296;11.348;2023-04-01T07:56:51;94794.00;;;8.56;100.00
30339;BME280;795;49.296;11.348;2023-04-01T07:59:48;94933.94;;;9.46;100.00
30339;BME280;795;49.296;11.348;2023-04-01T08:07:20;94981.06;;;10.16;100.00
30339;BME280;795;49.296;11.348;2023-04-01T08:13:23;95006.44;;;10.13;100.00
30339;BME280;795;49.296;11.348;2023-04-01T08:16:26;94999.44;;;10.25;100.00
30339;BME280;795;49.296;11.348;2023-04-01T08:22:41;94921.66;;;9.71;100.00
30339;BME280;795;49.296;11.348;2023-04-01T08:25:22;94920.81;;;9.58;100.00
30339;BME280;795;49.296;11.348;2023-04-01T08:28:09;94986.44;;;9.75;100.00
30339;BME280;795;49.296;11.348;2023-04-01T08:30:52;94988.53;;;9.86;100.00
30339;BME280;795;49.296;11.348;2023-04-01T08:33:28;94944.00;;;9.78;100.00
30339;BME280;795;49.296;11.348;2023-04-01T08:38:55;95005.53;;;10.60;100.00
30339;BME280;795;49.296;11.348;2023-04-01T08:41:53;94994.53;;;10.29;100.00
30339;BME280;795;49.296;11.348;2023-04-01T08:54:30;94987.38;;;10.01;100.00
30339;BME280;795;49.296;11.348;2023-04-01T09:00:47;94928.63;;;9.59;100.00
30339;BME280;795;49.296;11.348;2023-04-01T09:11:42;94988.97;;;9.89;100.00
30339;BME280;795;49.296;11.348;2023-04-01T09:23:53;94978.69;;;9.18;100.00
30339;BME280;795;49.296;11.348;2023-04-01T09:30:37;95002.53;;;9.47;100.00
30339;BME280;795;49.296;11.348;2023-04-01T09:37:26;95009.06;;;9.38;100.00
30339;BME280;795;49.296;11.348;2023-04-01T10:03:00;95015.03;;;9.06;100.00
30339;BME280;795;49.296;11.348;2023-04-01T10:06:35;95014.81;;;9.07;100.00
30339;BME280;795;49.296;11.348;2023-04-01T10:13:46;94982.19;;;9.53;100.00
30339;BME280;795;49.296;11.348;2023-04-01T10:30:45;95017.94;;;9.39;100.00
30339;BME280;795;49.296;11.348;2023-04-01T10:37:01;94962.69;;;8.76;100.00
30339;BME280;795;49.296;11.348;2023-04-01T10:59:32;95021.88;;;9.43;100.00
30339;BME280;795;49.296;11.348;2023-04-01T11:25:16;95010.63;;;8.98;100.00
30339;BME280;795;49.296;11.348;2023-04-01T11:28:43;95015.78;;;9.00;100.00
30339;BME280;795;49.296;11.348;2023-04-01T11:31:52;95019.03;;;8.95;100.00
30339;BME280;795;49.296;11.348;2023-04-01T11:35:00;95015.25;;;8.62;100.00
30339;BME280;795;49.296;11.348;2023-04-01T11:41:02;95038.91;;;8.44;
30339;BME280;795;49.296;11.348;2023-04-01T11:44:13;95035.81;;;8.40;100.00
30339;BME280;795;49.296;11.348;2023-04-01T11:50:10;94978.16;;;8.02;100.00
30339;BME280;795;49.296;11.348;2023-04-01T11:56:24;95037.69;;;8.46;100.00
30339;BME280;795;49.296;11.348;2023-04-01T11:59:41;95042.44;;;8.65;100.00
30339;BME280;795;49.296;11.348;2023-04-01T12:03:21;94993.34;;;8.52;100.00
30339;BME280;795;49.296;11.348;2023-04-01T12:08:13;95038.44;;;8.76;100.00
30339;BME280;795;49.296;11.348;2023-04-01T12:11:00;95047.78;;;8.65;100.00
30339;BME280;795;49.296;11.348;2023-04-01T12:14:19;95009.16;;;8.32;100.00
30339;BME280;795;49.296;11.348;2023-04-01T12:17:42;95047.31;;;8.41;100.00
30339;BME280;795;49.296;11.348;2023-04-01T12:20:39;95056.13;;;8.56;100.00
30339;BME280;795;49.296;11.348;2023-04-01T12:27:19;95056.31;;;8.54;100.00
30339;BME280;795;49.296;11.348;2023-04-01T12:30:12;95053.47;;;8.41;100.00
30339;BME280;795;49.296;11.348;2023-04-01T12:32:56;95044.47;;;8.42;100.00
30339;BME280;795;49.296;11.348;2023-04-01T12:39:14;95057.47;;;8.31;100.00
30339;BME280;795;49.296;11.348;2023-04-01T12:42:31;95067.06;;;8.40;100.00
30339;BME280;795;49.296;11.348;2023-04-01T12:45:32;95057.69;;;8.50;100.00
30339;BME280;795;49.296;11.348;2023-04-01T12:51:44;95061.56;;;8.84;100.00
30339;BME280;795;49.296;11.348;2023-04-01T12:58:39;95041.84;;;8.49;100.00
30339;BME280;795;49.296;11.348;2023-04-01T13:23:57;95004.53;;;7.90;100.00
30339;BME280;795;49.296;11.348;2023-04-01T13:30:26;94985.94;;;7.82;100.00
30339;BME280;795;49.296;11.348;2023-04-01T13:33:48;95085.66;;;8.33;100.00
30339;BME280;795;49.296;11.348;2023-04-01T13:36:47;95035.09;;;8.02;100.00
30339;BME280;795;49.296;11.348;2023-04-01T13:39:51;95044.97;;;8.02;100.00
30339;BME280;795;49.296;11.348;2023-04-01T13:43:11;95028.75;;;8.03;100.00
30339;BME280;795;49.296;11.348;2023-04-01T13:46:20;95074.50;;;8.44;100.00
30339;BME280;795;49.296;11.348;2023-04-01T13:49:16;95096.34;;;8.48;100.00
30339;BME280;795;49.296;11.348;2023-04-01T13:52:33;95021.03;;;7.94;100.00
30339;BME280;795;49.296;11.348;2023-04-01T14:12:08;95101.34;;;8.36;100.00
30339;BME280;795;49.296;11.348;2023-04-01T14:15:28;95038.41;;;8.04;100.00
30339;BME280;795;49.296;11.348;2023-04-01T14:18:30;95026.25;;;8.02;100.00
30339;BME280;795;49.296;11.348;2023-04-01T14:24:40;95097.28;;;8.55;100.00
30339;BME280;795;49.296;11.348;2023-04-01T14:27:31;95095.41;;;8.55;100.00
30339;BME280;795;49.296;11.348;2023-04-01T14:30:45;95064.44;;;8.46;100.00
30339;BME280;795;49.296;11.348;2023-04-01T14:33:50;95070.63;;;8.47;100.00
30339;BME280;795;49.296;11.348;2023-04-01T14:40:52;94968.31;;;8.24;100.00
30339;BME280;795;49.296;11.348;2023-04-01T14:43:53;95091.88;;;8.91;100.00
30339;BME280;795;49.296;11.348;2023-04-01T14:50:02;95061.03;;;8.74;100.00
30339;BME280;795;49.296;11.348;2023-04-01T14:52:40;95029.00;;;8.59;100.00
30339;BME280;795;49.296;11.348;2023-04-01T14:55:36;95043.38;;;8.58;100.00
30339;BME280;795;49.296;11.348;2023-04-01T14:58:17;95033.34;;;8.45;100.00
30339;BME280;795;49.296;11.348;2023-04-01T15:06:56;95108.09;;;8.68;100.00
30339;BME280;795;49.296;11.348;2023-04-01T15:09:42;95113.06;;;8.50;100.00
30339;BME280;795;49.296;11.348;2023-04-01T15:13:13;95088.44;;;8.25;100.00
30339;BME280;795;49.296;11.348;2023-04-01T15:16:19;95110.84;;;8.39;100.00
30339;BME280;795;49.296;11.348;2023-04-01T15:22:17;95103.13;;;8.29;100.00
30339;BME280;795;49.296;11.348;2023-04-01T15:31:21;95056.50;;;7.88;100.00
30339;BME280;795;49.296;11.348;2023-04-01T15:40:25;95124.78;;;8.34;100.00
30339;BME280;795;49.296;11.348;2023-04-01T15:43:36;95118.78;;;8.32;100.00
30339;BME280;795;49.296;11.348;2023-04-01T15:46:44;95066.53;;;7.86;100.00
30339;BME280;795;49.296;11.348;2023-04-01T15:49:38;95129.91;;;8.21;100.00
30339;BME280;795;49.296;11.348;2023-04-01T16:02:10;95138.88;;;8.14;100.00
30339;BME280;795;49.296;11.348;2023-04-01T16:12:07;95144.47;;;8.19;100.00
30339;BME280;795;49.296;11.348;2023-04-01T16:18:05;95136.22;;;7.99;100.00
30339;BME280;795;49.296;11.348;2023-04-01T16:21:01;95146.50;;;8.02;100.00
30339;BME280;795;49.296;11.348;2023-04-01T16:23:48;95108.56;;;7.77;100.00
30339;BME280;795;49.296;11.348;2023-04-01T16:26:39;95081.28;;;7.53;100.00
30339;BME280;795;49.296;11.348;2023-04-01T16:33:13;95095.19;;;7.48;100.00
30339;BME280;795;49.296;11.348;2023-04-01T16:40:01;95149.16;;;7.73;100.00
30339;BME280;795;49.296;11.348;2023-04-01T16:43:14;95152.22;;;7.70;100.00
30339;BME280;795;49.296;11.348;2023-04-01T16:46:28;95167.22;;;7.71;100.00
30339;BME280;795;49.296;11.348;2023-04-01T16:49:25;95166.22;;;7.72;100.00
30339;BME280;795;49.296;11.348;2023-04-01T16:55:00;95064.78;;;6.97;100.00
30339;BME280;795;49.296;11.348;2023-04-01T16:57:57;95134.66;;;7.38;100.00
30339;BME280;795;49.296;11.348;2023-04-01T17:00:40;95141.63;;;7.39;100.00
30339;BME280;795;49.296;11.348;2023-04-01T17:09:44;95184.03;;;7.57;100.00
30339;BME280;795;49.296;11.348;2023-04-01T17:25:52;95185.19;;;7.77;100.00
30339;BME280;795;49.296;11.348;2023-04-01T17:29:31;95194.22;;;7.76;100.00
30339;BME280;795;49.296;11.348;2023-04-01T17:42:14;95123.41;;;7.43;100.00
30339;BME280;795;49.296;11.348;2023-04-01T17:48:49;95103.28;;;7.17;100.00
30339;BME280;795;49.296;11.348;2023-04-01T17:51:43;95187.28;;;7.67;100.00
30339;BME280;795;49.296;11.348;2023-04-01T17:54:30;95210.81;;;7.86;100.00
30339;BME280;795;49.296;11.348;2023-04-01T17:57:49;95217.44;;;7.90;100.00
30339;BME280;795;49.296;11.348;2023-04-01T18:00:45;95215.03;;;7.80;100.00
30339;BME280;795;49.296;11.348;2023-04-01T18:04:07;95223.34;;;7.85;100.00
30339;BME280;795;49.296;11.348;2023-04-01T18:07:05;95216.50;;;7.83;100.00
30339;BME280;795;49.296;11.348;2023-04-01T18:13:58;95198.72;;;7.75;100.00
30339;BME280;795;49.296;11.348;2023-04-01T18:17:40;95229.81;;;7.91;100.00
30339;BME280;795;49.296;11.348;2023-04-01T18:26:05;95206.13;;;7.88;100.00
30339;BME280;795;49.296;11.348;2023-04-01T18:28:57;95229.91;;;7.97;100.00
30339;BME280;795;49.296;11.348;2023-04-01T18:31:38;95138.22;;;7.30;100.00
30339;BME280;795;49.296;11.348;2023-04-01T18:37:47;95238.94;;;7.96;100.00
30339;BME280;795;49.296;11.348;2023-04-01T18:40:30;95245.09;;;7.97;100.00
30339;BME280;795;49.296;11.348;2023-04-01T18:43:42;95217.25;;;7.77;100.00
30339;BME280;795;49.296;11.348;2023-04-01T18:52:40;95221.38;;;7.65;100.00
30339;BME280;795;49.296;11.348;2023-04-01T18:55:42;94823.75;;;5.18;100.00
30339;BME280;795;49.296;11.348;2023-04-01T18:58:33;95275.53;;;7.96;100.00
30339;BME280;795;49.296;11.348;2023-04-01T19:01:47;95276.50;;;7.95;100.00
30339;BME280;795;49.296;11.348;2023-04-01T19:04:45;95187.19;;;7.38;100.00
30339;BME280;795;49.296;11.348;2023-04-01T19:17:00;95282.69;;;7.95;100.00
30339;BME280;795;49.296;11.348;2023-04-01T19:20:00;95280.66;;;7.97;100.00
30339;BME280;795;49.296;11.348;2023-04-01T19:23:18;95286.66;;;7.99;100.00
30339;BME280;795;49.296;11.348;2023-04-01T19:26:00;95221.97;;;7.52;100.00
30339;BME280;795;49.296;11.348;2023-04-01T19:29:15;95300.47;;;7.88;100.00
30339;BME280;795;49.296;11.348;2023-04-01T19:35:06;95294.88;;;7.75;100.00
30339;BME280;795;49.296;11.348;2023-04-01T19:44:49;95316.13;;;7.69;100.00
30339;BME280;795;49.296;11.348;2023-04-01T19:48:00;95294.31;;;7.65;100.00
30339;BME280;795;49.296;11.348;2023-04-01T19:53:45;95312.47;;;7.70;100.00
30339;BME280;795;49.296;11.348;2023-04-01T19:56:20;95168.88;;;6.89;100.00
30339;BME280;795;49.296;11.348;2023-04-01T19:59:16;95276.81;;;7.63;100.00
30339;BME280;795;49.296;11.348;2023-04-01T20:04:53;95273.38;;;7.46;100.00
30339;BME280;795;49.296;11.348;2023-04-01T20:07:38;95266.00;;;7.33;100.00
30339;BME280;795;49.296;11.348;2023-04-01T20:10:20;95257.06;;;7.18;100.00
30339;BME280;795;49.296;11.348;2023-04-01T20:13:44;95337.19;;;7.64;100.00
30339;BME280;795;49.296;11.348;2023-04-01T20:16:15;95336.25;;;7.57;100.00
30339;BME280;795;49.296;11.348;2023-04-01T20:18:55;95290.41;;;7.22;100.00
30339;BME280;795;49.296;11.348;2023-04-01T20:24:35;95346.09;;;7.56;100.00
30339;BME280;795;49.296;11.348;2023-04-01T20:46:11;95299.78;;;6.88;100.00
30339;BME280;795;49.296;11.348;2023-04-01T20:52:32;95344.22;;;7.03;100.00
30339;BME280;795;49.296;11.348;2023-04-01T20:58:37;95378.78;;;7.27;100.00
30339;BME280;795;49.296;11.348;2023-04-01T21:01:47;95301.63;;;6.79;100.00
30339;BME280;795;49.296;11.348;2023-04-01T21:07:21;95384.44;;;7.32;100.00
30339;BME280;795;49.296;11.348;2023-04-01T21:13:57;95393.44;;;7.31;100.00
30339;BME280;795;49.296;11.348;2023-04-01T21:20:29;95392.16;;;7.27;100.00
30339;BME280;795;49.296;11.348;2023-04-01T21:23:20;95404.63;;;7.35;100.00
30339;BME280;795;49.296;11.348;2023-04-01T21:26:35;95371.50;;;7.21;100.00
30339;BME280;795;49.296;11.348;2023-04-01T21:30:03;95359.53;;;7.09;100.00
30339;BME280;795;49.296;11.348;2023-04-01T21:33:27;95324.97;;;6.85;100.00
30339;BME280;795;49.296;11.348;2023-04-01T21:37:12;95386.53;;;7.14;100.00
30339;BME280;795;49.296;11.348;2023-04-01T21:43:29;95326.66;;;6.78;100.00
30339;BME280;795;49.296;11.348;2023-04-01T21:52:46;95408.38;;;7.18;100.00
30339;BME280;795;49.296;11.348;2023-04-01T21:59:52;95389.09;;;7.00;100.00
30339;BME280;795;49.296;11.348;2023-04-01T22:08:54;95347.34;;;6.68;100.00
30339;BME280;795;49.296;11.348;2023-04-01T22:14:28;95386.25;;;7.01;100.00
30339;BME280;795;49.296;11.348;2023-04-01T22:17:00;95423.00;;;7.30;100.00